createdAt,value
2023-03-02T00:00:18.257Z,3.60
2023-03-02T00:05:20.422Z,3.40
2023-03-02T00:10:22.552Z,3.30
2023-03-02T00:15:24.701Z,3.40
2023-03-02T00:20:26.915Z,3.40
2023-03-02T00:25:29.072Z,3.50
2023-03-02T00:30:31.148Z,3.50
2023-03-02T00:35:38.722Z,3.50
2023-03-02T00:40:49.149Z,3.50
2023-03-02T00:45:51.260Z,3.60
2023-03-02T00:50:53.381Z,3.60
2023-03-02T00:55:55.779Z,3.60
2023-03-02T01:00:59.610Z,3.50
2023-03-02T01:06:02.913Z,3.50
2023-03-02T01:11:17.260Z,3.40
2023-03-02T01:16:19.426Z,3.30
2023-03-02T01:21:21.572Z,3.20
2023-03-02T01:26:23.825Z,3.10
2023-03-02T01:31:26.863Z,3.10
2023-03-02T01:36:29.140Z,3.10
2023-03-02T01:41:31.811Z,3.10
2023-03-02T01:46:35.285Z,3.00
2023-03-02T01:51:44.127Z,3.00
2023-03-02T01:56:46.883Z,2.90
2023-03-02T02:01:55.620Z,2.90
2023-03-02T02:07:03.802Z,2.90
2023-03-02T02:12:06.519Z,2.80
2023-03-02T02:17:09.999Z,2.70
2023-03-02T02:22:17.450Z,2.70
2023-03-02T02:27:19.531Z,2.70
2023-03-02T02:32:27.427Z,2.80
2023-03-02T02:37:41.504Z,2.80
2023-03-02T02:42:47.471Z,2.80
2023-03-02T02:47:50.245Z,2.70
2023-03-02T02:52:59.509Z,2.60
2023-03-02T02:58:10.032Z,2.60
2023-03-02T03:03:29.177Z,2.70
2023-03-02T03:09:02.616Z,2.70
2023-03-02T03:14:22.204Z,2.60
2023-03-02T03:19:31.903Z,2.50
2023-03-02T03:24:35.621Z,2.40
2023-03-02T03:29:43.215Z,2.30
2023-03-02T03:34:47.935Z,2.10
2023-03-02T03:40:07.061Z,2.00
2023-03-02T03:45:10.124Z,2.00
2023-03-02T03:50:14.098Z,2.00
2023-03-02T03:55:17.938Z,2.20
2023-03-02T04:00:22.860Z,2.20
2023-03-02T04:05:31.742Z,2.20
2023-03-02T04:10:36.524Z,2.10
2023-03-02T04:15:40.000Z,1.90
2023-03-02T04:20:42.325Z,1.70
2023-03-02T04:25:44.565Z,1.50
2023-03-02T04:30:51.611Z,1.40
2023-03-02T04:35:54.714Z,1.30
2023-03-02T04:40:58.516Z,1.40
2023-03-02T04:46:00.669Z,1.50
2023-03-02T04:51:03.015Z,1.50
2023-03-02T04:56:05.409Z,1.40
2023-03-02T05:01:07.583Z,1.30
2023-03-02T05:06:09.739Z,1.10
2023-03-02T05:11:22.077Z,1.10
2023-03-02T05:16:25.996Z,0.90
2023-03-02T05:21:28.320Z,0.90
2023-03-02T05:26:31.327Z,0.80
2023-03-02T05:31:39.719Z,0.70
2023-03-02T05:36:42.736Z,0.60
2023-03-02T05:41:44.917Z,0.60
2023-03-02T05:46:47.661Z,0.50
2023-03-02T05:51:49.857Z,0.50
2023-03-02T05:56:51.958Z,0.40
2023-03-02T06:01:58.837Z,0.40
2023-03-02T06:07:01.077Z,0.30
2023-03-02T06:12:03.306Z,0.30
2023-03-02T06:17:05.413Z,0.20
2023-03-02T06:22:07.577Z,0.10
2023-03-02T06:27:09.897Z,0.00
2023-03-02T06:32:12.172Z,0.00
2023-03-02T06:37:14.366Z,-0.10
2023-03-02T06:42:16.483Z,-0.10
2023-03-02T06:47:19.143Z,-0.20
2023-03-02T06:52:21.283Z,-0.30
2023-03-02T06:57:23.891Z,-0.30
2023-03-02T07:02:26.057Z,-0.30
2023-03-02T07:07:28.394Z,-0.30
2023-03-02T07:12:30.515Z,-0.30
2023-03-02T07:17:34.165Z,-0.30
2023-03-02T07:22:36.591Z,-0.10
2023-03-02T07:27:39.122Z,0.00
2023-03-02T07:32:41.943Z,0.10
2023-03-02T07:37:44.693Z,0.30
2023-03-02T07:42:46.888Z,0.40
2023-03-02T07:47:49.992Z,0.40
2023-03-02T07:52:52.174Z,0.50
2023-03-02T07:57:54.445Z,0.40
2023-03-02T08:02:56.797Z,0.50
2023-03-02T08:07:59.034Z,0.60
2023-03-02T08:13:02.190Z,0.70
2023-03-02T08:18:04.607Z,0.80
2023-03-02T08:23:06.816Z,0.90
2023-03-02T08:28:08.952Z,1.30
2023-03-02T08:33:11.382Z,1.60
2023-03-02T08:38:13.488Z,1.80
2023-03-02T08:43:15.573Z,2.20
2023-03-02T08:48:17.806Z,2.50
2023-03-02T08:53:19.969Z,2.60
2023-03-02T08:58:22.220Z,2.90
2023-03-02T09:03:24.718Z,3.20
2023-03-02T09:08:26.865Z,3.50
2023-03-02T09:13:29.017Z,3.70
2023-03-02T09:18:32.002Z,3.90
2023-03-02T09:23:36.638Z,4.20
2023-03-02T09:28:39.722Z,4.30
2023-03-02T09:33:42.009Z,4.50
2023-03-02T09:38:44.164Z,4.70
2023-03-02T09:44:26.633Z,5.00
2023-03-02T09:50:01.389Z,5.10
2023-03-02T09:55:25.172Z,5.20
2023-03-02T10:00:43.841Z,5.40
2023-03-02T10:05:51.284Z,5.50
2023-03-02T10:11:13.331Z,5.70
2023-03-02T10:16:34.559Z,6.00
2023-03-02T10:21:41.311Z,6.10
2023-03-02T10:26:53.258Z,6.20
2023-03-02T10:32:20.479Z,6.40
2023-03-02T10:37:25.724Z,6.60
2023-03-02T10:42:34.294Z,6.70
2023-03-02T10:47:36.318Z,6.90
2023-03-02T10:52:59.246Z,7.00
2023-03-02T10:58:04.883Z,7.10
2023-03-02T11:03:20.790Z,7.40
2023-03-02T11:08:25.742Z,7.50
2023-03-02T11:13:33.841Z,7.60
2023-03-02T11:18:48.927Z,7.60
2023-03-02T11:24:15.414Z,7.80
2023-03-02T11:29:47.325Z,8.10
2023-03-02T11:34:55.953Z,8.20
2023-03-02T11:40:20.943Z,8.30
2023-03-02T11:45:27.394Z,8.50
2023-03-02T11:50:31.014Z,8.50
2023-03-02T11:55:40.680Z,8.40
2023-03-02T12:00:43.840Z,8.20
2023-03-02T12:06:07.929Z,8.20
2023-03-02T12:11:19.200Z,8.20
2023-03-02T12:16:42.888Z,8.20
2023-03-02T12:22:05.760Z,8.00
2023-03-02T12:27:25.748Z,7.80
2023-03-02T12:32:30.271Z,7.80
2023-03-02T12:37:45.041Z,7.80
2023-03-02T12:43:05.649Z,7.80
2023-03-02T12:48:24.035Z,7.80
2023-03-02T12:53:26.153Z,7.90
2023-03-02T12:58:29.666Z,8.10
2023-03-02T13:03:31.901Z,8.00
2023-03-02T13:08:34.242Z,8.10
2023-03-02T13:13:40.747Z,8.20
2023-03-02T13:18:42.820Z,8.00
2023-03-02T13:23:51.705Z,7.90
2023-03-02T13:29:13.637Z,8.00
2023-03-02T13:34:28.477Z,8.00
2023-03-02T13:39:31.990Z,8.00
2023-03-02T13:44:35.425Z,8.00
2023-03-02T13:49:37.555Z,8.00
2023-03-02T13:54:43.847Z,7.90
2023-03-02T13:59:45.937Z,8.00
2023-03-02T14:04:48.117Z,7.90
2023-03-02T14:09:50.308Z,7.80
2023-03-02T14:14:54.644Z,7.80
2023-03-02T14:19:56.990Z,7.80
2023-03-02T14:24:59.155Z,7.80
2023-03-02T14:30:01.380Z,7.80
2023-03-02T14:35:03.896Z,7.80
2023-03-02T14:40:14.358Z,7.90
2023-03-02T14:45:17.268Z,7.90
2023-03-02T14:50:19.446Z,7.90
2023-03-02T14:55:30.557Z,7.80
2023-03-02T15:00:32.979Z,7.70
2023-03-02T15:05:35.028Z,7.60
2023-03-02T15:10:37.070Z,7.50
2023-03-02T15:15:39.864Z,7.40
2023-03-02T15:20:42.106Z,7.30
2023-03-02T15:25:44.149Z,7.30
2023-03-02T15:30:47.522Z,7.30
2023-03-02T15:35:55.355Z,7.20
2023-03-02T15:40:57.799Z,7.20
2023-03-02T15:46:00.936Z,7.20
2023-03-02T15:51:05.721Z,7.20
2023-03-02T15:56:10.821Z,7.20
2023-03-02T16:01:15.989Z,7.20
2023-03-02T16:06:18.192Z,7.20
2023-03-02T16:11:23.354Z,7.20
2023-03-02T16:16:26.396Z,7.20
2023-03-02T16:21:29.844Z,7.20
2023-03-02T16:26:33.976Z,7.20
2023-03-02T16:31:38.020Z,7.10
2023-03-02T16:36:41.466Z,7.20
2023-03-02T16:41:46.202Z,7.10
2023-03-02T16:46:48.434Z,7.10
2023-03-02T16:51:50.494Z,7.10
2023-03-02T16:56:52.606Z,7.00
2023-03-02T17:01:54.689Z,7.00
2023-03-02T17:07:01.061Z,7.00
2023-03-02T17:12:04.372Z,7.00
2023-03-02T17:17:06.507Z,6.90
2023-03-02T17:22:08.647Z,6.80
2023-03-02T17:27:24.096Z,6.80
2023-03-02T17:32:27.661Z,6.80
2023-03-02T17:37:30.484Z,6.70
2023-03-02T17:42:33.142Z,6.70
2023-03-02T17:47:35.835Z,6.70
2023-03-02T17:52:38.041Z,6.60
2023-03-02T17:57:40.700Z,6.60
2023-03-02T18:02:42.898Z,6.60
2023-03-02T18:07:45.326Z,6.50
2023-03-02T18:12:48.688Z,6.50
2023-03-02T18:17:50.753Z,6.50
2023-03-02T18:22:52.881Z,6.50
2023-03-02T18:27:55.180Z,6.40
2023-03-02T18:32:57.322Z,6.40
2023-03-02T18:37:59.600Z,6.40
2023-03-02T18:43:01.763Z,6.30
2023-03-02T18:48:04.500Z,6.40
2023-03-02T18:53:08.670Z,6.40
2023-03-02T18:58:18.134Z,6.40
2023-03-02T19:03:20.336Z,6.40
2023-03-02T19:08:23.571Z,6.40
2023-03-02T19:13:25.755Z,6.40
2023-03-02T19:18:28.157Z,6.40
2023-03-02T19:23:30.438Z,6.30
2023-03-02T19:28:35.057Z,6.30
2023-03-02T19:33:38.618Z,6.30
2023-03-02T19:38:43.129Z,6.30
2023-03-02T19:43:46.160Z,6.20
2023-03-02T19:48:48.284Z,6.20
2023-03-02T19:53:50.670Z,6.20
2023-03-02T19:58:54.130Z,6.30
2023-03-02T20:03:58.198Z,6.20
2023-03-02T20:09:04.297Z,6.20
2023-03-02T20:14:06.474Z,6.20
2023-03-02T20:19:08.692Z,6.10
2023-03-02T20:24:11.146Z,6.20
2023-03-02T20:29:13.820Z,6.20
2023-03-02T20:34:16.714Z,6.20
2023-03-02T20:39:22.286Z,6.20
2023-03-02T20:44:25.881Z,6.10
2023-03-02T20:49:29.802Z,6.10
2023-03-02T20:54:39.016Z,6.10
2023-03-02T20:59:41.524Z,6.10
2023-03-02T21:04:43.881Z,6.10
2023-03-02T21:09:46.116Z,6.10
2023-03-02T21:14:48.353Z,6.10
2023-03-02T21:19:50.653Z,6.10
2023-03-02T21:24:53.142Z,6.10
2023-03-02T21:29:55.787Z,6.20
2023-03-02T21:34:58.029Z,6.20
2023-03-02T21:40:00.188Z,6.20
2023-03-02T21:45:03.035Z,6.20
2023-03-02T21:50:05.614Z,6.20
2023-03-02T21:55:09.451Z,6.20
2023-03-02T22:00:25.316Z,6.20
2023-03-02T22:05:27.587Z,6.10
2023-03-02T22:10:33.898Z,6.20
2023-03-02T22:15:35.972Z,6.20
2023-03-02T22:20:40.094Z,6.20
2023-03-02T22:25:43.677Z,6.20
2023-03-02T22:30:45.895Z,6.20
2023-03-02T22:35:49.949Z,6.20
2023-03-02T22:40:53.549Z,6.20
2023-03-02T22:46:17.484Z,6.20
2023-03-02T22:51:27.913Z,6.20
2023-03-02T22:56:37.484Z,6.10
2023-03-02T23:01:42.589Z,6.00
2023-03-02T23:06:47.496Z,5.80
2023-03-02T23:11:51.027Z,5.50
2023-03-02T23:16:59.731Z,5.30
2023-03-02T23:22:02.389Z,5.20
2023-03-02T23:27:04.687Z,5.20
2023-03-02T23:32:07.124Z,5.30
2023-03-02T23:37:09.424Z,5.40
2023-03-02T23:42:12.620Z,5.40
2023-03-02T23:47:14.802Z,5.50
2023-03-02T23:52:16.990Z,5.50
2023-03-02T23:57:19.102Z,5.60
